createdAt,value
2018-12-06T00:00:11.017Z,63.00
2018-12-06T00:02:39.208Z,62.92
2018-12-06T00:05:07.531Z,63.43
2018-12-06T00:07:35.778Z,62.97
2018-12-06T00:10:04.141Z,63.38
2018-12-06T00:12:32.317Z,63.37
2018-12-06T00:15:11.897Z,63.32
2018-12-06T00:17:40.937Z,63.70
2018-12-06T00:20:09.116Z,63.69
2018-12-06T00:22:37.303Z,63.75
2018-12-06T00:25:05.632Z,63.80
2018-12-06T00:27:33.788Z,64.49
2018-12-06T00:30:13.505Z,64.92
2018-12-06T00:32:41.668Z,65.29
2018-12-06T00:35:09.824Z,65.41
2018-12-06T00:37:38.029Z,66.38
2018-12-06T00:40:06.563Z,67.00
2018-12-06T00:42:34.724Z,66.97
2018-12-06T00:45:03.065Z,68.00
2018-12-06T00:47:31.345Z,68.49
2018-12-06T00:49:59.505Z,69.30
2018-12-06T00:52:27.669Z,69.75
2018-12-06T00:54:55.958Z,70.47
2018-12-06T00:57:24.131Z,70.21
2018-12-06T00:59:52.313Z,70.45
2018-12-06T01:02:20.889Z,70.99
2018-12-06T01:04:49.072Z,71.28
2018-12-06T01:07:17.239Z,71.22
2018-12-06T01:09:45.528Z,71.05
2018-12-06T01:12:13.769Z,72.15
2018-12-06T01:14:41.944Z,72.65
2018-12-06T01:17:10.341Z,73.03
2018-12-06T01:19:38.653Z,73.41
2018-12-06T01:22:07.017Z,73.23
2018-12-06T01:24:35.200Z,74.06
2018-12-06T01:27:03.474Z,74.41
2018-12-06T01:29:31.749Z,74.57
2018-12-06T01:31:59.917Z,74.77
2018-12-06T01:34:28.076Z,74.17
2018-12-06T01:36:56.278Z,74.75
2018-12-06T01:39:24.445Z,74.76
2018-12-06T01:41:52.613Z,74.56
2018-12-06T01:44:20.797Z,74.49
2018-12-06T01:46:48.969Z,75.03
2018-12-06T01:49:17.145Z,74.93
2018-12-06T01:51:45.412Z,74.51
2018-12-06T01:54:13.597Z,74.55
2018-12-06T01:56:41.753Z,74.87
2018-12-06T01:59:09.908Z,74.84
2018-12-06T02:01:38.110Z,74.42
2018-12-06T02:04:06.405Z,74.11
2018-12-06T02:06:34.577Z,74.14
2018-12-06T02:09:02.832Z,74.00
2018-12-06T02:11:31.057Z,73.87
2018-12-06T02:13:59.404Z,73.64
2018-12-06T02:16:27.713Z,73.61
2018-12-06T02:18:56.060Z,73.47
2018-12-06T02:21:24.237Z,73.38
2018-12-06T02:23:52.506Z,73.78
2018-12-06T02:26:20.685Z,73.36
2018-12-06T02:28:49.256Z,73.99
2018-12-06T02:31:17.448Z,74.13
2018-12-06T02:33:45.709Z,73.87
2018-12-06T02:36:13.893Z,73.81
2018-12-06T02:38:42.065Z,73.90
2018-12-06T02:41:10.357Z,74.15
2018-12-06T02:43:38.525Z,74.43
2018-12-06T02:46:06.770Z,74.68
2018-12-06T02:48:35.017Z,74.59
2018-12-06T02:51:03.374Z,74.86
2018-12-06T02:53:31.628Z,74.75
2018-12-06T02:55:59.917Z,74.47
2018-12-06T02:58:28.177Z,74.04
2018-12-06T03:00:56.476Z,73.89
2018-12-06T03:03:24.633Z,74.39
2018-12-06T03:05:52.816Z,74.08
2018-12-06T03:08:20.980Z,74.38
2018-12-06T03:10:49.160Z,74.02
2018-12-06T03:13:17.321Z,74.33
2018-12-06T03:15:45.613Z,74.35
2018-12-06T03:18:13.766Z,74.29
2018-12-06T03:20:41.981Z,74.14
2018-12-06T03:23:10.128Z,74.15
2018-12-06T03:25:38.463Z,73.95
2018-12-06T03:28:06.682Z,74.19
2018-12-06T03:30:34.994Z,74.72
2018-12-06T03:33:03.142Z,74.62
2018-12-06T03:35:31.301Z,74.25
2018-12-06T03:37:59.460Z,74.57
2018-12-06T03:40:27.668Z,74.53
2018-12-06T03:42:55.852Z,75.15
2018-12-06T03:45:24.114Z,74.69
2018-12-06T03:47:52.416Z,74.99
2018-12-06T03:50:20.668Z,74.68
2018-12-06T03:52:49.061Z,75.04
2018-12-06T03:55:17.292Z,74.91
2018-12-06T03:57:45.518Z,74.99
2018-12-06T04:00:14.297Z,74.95
2018-12-06T04:02:42.561Z,74.81
2018-12-06T04:05:10.709Z,74.75
2018-12-06T04:07:38.938Z,74.64
2018-12-06T04:10:07.336Z,74.99
2018-12-06T04:12:35.581Z,75.05
2018-12-06T04:15:04.126Z,74.49
2018-12-06T04:17:32.346Z,74.67
2018-12-06T04:20:00.489Z,74.31
2018-12-06T04:22:28.697Z,74.35
2018-12-06T04:24:56.861Z,74.76
2018-12-06T04:27:25.044Z,74.26
2018-12-06T04:29:53.210Z,74.35
2018-12-06T04:32:21.400Z,74.33
2018-12-06T04:34:49.557Z,74.82
2018-12-06T04:37:17.728Z,74.70
2018-12-06T04:39:45.914Z,74.43
2018-12-06T04:42:14.080Z,74.54
2018-12-06T04:44:42.273Z,74.41
2018-12-06T04:47:10.644Z,74.71
2018-12-06T04:49:38.807Z,75.12
2018-12-06T04:52:06.949Z,75.09
2018-12-06T04:54:35.172Z,74.44
2018-12-06T04:57:03.321Z,74.83
2018-12-06T04:59:31.741Z,75.09
2018-12-06T05:02:00.013Z,74.99
2018-12-06T05:04:28.253Z,74.97
2018-12-06T05:06:56.401Z,74.99
2018-12-06T05:09:24.553Z,74.73
2018-12-06T05:11:52.808Z,74.48
2018-12-06T05:14:21.361Z,74.83
2018-12-06T05:16:49.816Z,74.91
2018-12-06T05:19:17.977Z,75.06
2018-12-06T05:21:46.149Z,74.96
2018-12-06T05:24:14.409Z,74.48
2018-12-06T05:26:42.668Z,74.84
2018-12-06T05:29:10.844Z,74.71
2018-12-06T05:31:39.125Z,74.13
2018-12-06T05:34:07.288Z,74.32
2018-12-06T05:36:35.441Z,74.37
2018-12-06T05:39:05.081Z,74.09
2018-12-06T05:41:33.241Z,74.22
2018-12-06T05:44:01.529Z,74.57
2018-12-06T05:46:29.714Z,74.19
2018-12-06T05:48:57.949Z,74.36
2018-12-06T05:51:26.159Z,74.49
2018-12-06T05:53:54.348Z,74.12
2018-12-06T05:56:22.600Z,74.62
2018-12-06T05:58:50.844Z,74.31
2018-12-06T06:01:19.009Z,74.15
2018-12-06T06:03:47.242Z,74.33
2018-12-06T06:06:15.421Z,74.03
2018-12-06T06:08:43.593Z,73.75
2018-12-06T06:11:11.832Z,74.34
2018-12-06T06:13:39.989Z,73.90
2018-12-06T06:16:08.224Z,74.16
2018-12-06T06:18:36.405Z,74.20
2018-12-06T06:21:04.562Z,74.36
2018-12-06T06:23:32.713Z,74.46
2018-12-06T06:26:01.033Z,74.18
2018-12-06T06:28:29.185Z,73.93
2018-12-06T06:30:57.376Z,74.46
2018-12-06T06:33:25.637Z,74.03
2018-12-06T06:35:53.952Z,74.22
2018-12-06T06:38:22.202Z,74.41
2018-12-06T06:40:50.488Z,74.12
2018-12-06T06:43:18.641Z,74.06
2018-12-06T06:48:20.637Z,74.35
2018-12-06T06:50:48.817Z,74.25
2018-12-06T06:53:16.977Z,74.20
2018-12-06T06:55:45.173Z,73.70
2018-12-06T06:58:13.316Z,73.57
2018-12-06T07:00:41.681Z,74.18
2018-12-06T07:03:09.888Z,74.46
2018-12-06T07:05:38.062Z,74.21
2018-12-06T07:08:06.281Z,73.98
2018-12-06T07:10:35.085Z,74.07
2018-12-06T07:13:03.517Z,74.31
2018-12-06T07:15:31.665Z,74.46
2018-12-06T07:17:59.828Z,74.15
2018-12-06T07:20:28.081Z,74.04
2018-12-06T07:22:56.317Z,74.21
2018-12-06T07:25:24.629Z,74.32
2018-12-06T07:27:52.787Z,74.30
2018-12-06T07:30:21.057Z,73.99
2018-12-06T07:32:49.321Z,73.97
2018-12-06T07:35:17.501Z,74.09
2018-12-06T07:37:45.657Z,73.96
2018-12-06T07:40:14.061Z,74.65
2018-12-06T07:42:42.329Z,74.25
2018-12-06T07:45:10.737Z,74.56
2018-12-06T07:47:38.901Z,74.32
2018-12-06T07:50:07.378Z,73.89
2018-12-06T07:52:35.760Z,74.57
2018-12-06T07:55:04.433Z,74.71
2018-12-06T07:57:32.608Z,74.04
2018-12-06T08:00:00.765Z,74.02
2018-12-06T08:02:28.926Z,74.06
2018-12-06T08:04:57.121Z,73.71
2018-12-06T08:07:25.337Z,73.93
2018-12-06T08:09:53.492Z,73.61
2018-12-06T08:12:21.757Z,73.39
2018-12-06T08:14:50.097Z,73.71
2018-12-06T08:17:18.305Z,73.93
2018-12-06T08:19:46.489Z,73.52
2018-12-06T08:22:14.653Z,73.68
2018-12-06T08:24:42.845Z,73.82
2018-12-06T08:27:11.011Z,73.37
2018-12-06T08:29:39.193Z,73.92
2018-12-06T08:32:07.357Z,73.85
2018-12-06T08:34:35.644Z,73.66
2018-12-06T08:37:03.893Z,73.58
2018-12-06T08:39:32.101Z,73.64
2018-12-06T08:42:00.509Z,73.48
2018-12-06T08:44:28.673Z,73.89
2018-12-06T08:46:56.909Z,73.63
2018-12-06T08:49:25.198Z,73.80
2018-12-06T08:51:53.372Z,73.63
2018-12-06T08:54:21.661Z,73.80
2018-12-06T08:56:49.945Z,73.24
2018-12-06T08:59:18.218Z,73.35
2018-12-06T09:01:46.416Z,73.68
2018-12-06T09:04:14.573Z,73.28
2018-12-06T09:06:42.833Z,73.27
2018-12-06T09:09:11.120Z,73.58
2018-12-06T09:11:39.273Z,73.28
2018-12-06T09:14:07.572Z,73.24
2018-12-06T09:16:35.717Z,73.57
2018-12-06T09:19:04.053Z,73.58
2018-12-06T09:21:32.293Z,72.98
2018-12-06T09:24:00.927Z,73.53
2018-12-06T09:26:29.169Z,73.11
2018-12-06T09:28:57.420Z,73.11
2018-12-06T09:31:25.719Z,73.03
2018-12-06T09:34:07.081Z,72.94
2018-12-06T09:36:36.298Z,73.26
2018-12-06T09:39:07.005Z,72.71
2018-12-06T09:41:35.300Z,72.77
2018-12-06T09:44:03.688Z,72.75
2018-12-06T09:46:34.077Z,72.66
2018-12-06T09:49:04.517Z,72.43
2018-12-06T09:51:33.346Z,72.07
2018-12-06T09:54:01.847Z,72.39
2018-12-06T09:56:30.024Z,72.89
2018-12-06T09:58:58.164Z,72.22
2018-12-06T10:01:26.345Z,72.05
2018-12-06T10:03:57.141Z,72.66
2018-12-06T10:06:31.382Z,71.86
2018-12-06T10:08:59.613Z,72.18
2018-12-06T10:11:27.794Z,72.89
2018-12-06T10:13:55.949Z,72.52
2018-12-06T10:16:24.258Z,72.59
2018-12-06T10:18:52.510Z,72.52
2018-12-06T10:21:20.866Z,72.23
2018-12-06T10:23:49.073Z,71.87
2018-12-06T10:26:17.307Z,72.03
2018-12-06T10:28:45.473Z,72.03
2018-12-06T10:31:13.665Z,72.01
2018-12-06T10:33:41.948Z,72.48
2018-12-06T10:36:10.365Z,72.34
2018-12-06T10:38:38.612Z,72.26
2018-12-06T10:41:07.481Z,72.42
2018-12-06T10:43:35.712Z,71.96
2018-12-06T10:46:04.017Z,72.26
2018-12-06T10:48:32.421Z,71.75
2018-12-06T10:51:11.974Z,72.08
2018-12-06T10:53:40.132Z,72.14
2018-12-06T10:56:08.321Z,71.80
2018-12-06T10:58:36.477Z,71.48
2018-12-06T11:01:08.397Z,71.97
2018-12-06T11:03:40.800Z,71.26
2018-12-06T11:06:09.105Z,71.58
2018-12-06T11:08:37.270Z,72.25
2018-12-06T11:11:05.485Z,72.24
2018-12-06T11:13:33.709Z,72.35
2018-12-06T11:16:01.904Z,71.90
2018-12-06T11:18:30.121Z,71.96
2018-12-06T11:20:58.333Z,72.18
2018-12-06T11:23:26.721Z,71.90
2018-12-06T11:25:54.997Z,71.99
2018-12-06T11:28:23.181Z,72.01
2018-12-06T11:30:51.824Z,72.41
2018-12-06T11:33:20.077Z,71.67
2018-12-06T11:35:48.323Z,71.99
2018-12-06T11:38:16.573Z,72.36
2018-12-06T11:40:44.724Z,72.62
2018-12-06T11:43:13.040Z,72.47
2018-12-06T11:45:41.320Z,72.56
2018-12-06T11:48:09.601Z,72.42
2018-12-06T11:50:37.872Z,72.07
2018-12-06T11:53:06.073Z,72.01
2018-12-06T11:55:34.613Z,72.44
2018-12-06T11:58:03.025Z,72.02
2018-12-06T12:00:31.189Z,71.88
2018-12-06T12:02:59.353Z,71.56
2018-12-06T12:05:27.544Z,71.69
2018-12-06T12:07:55.704Z,71.85
2018-12-06T12:10:24.805Z,72.53
2018-12-06T12:12:53.001Z,72.42
2018-12-06T12:15:21.472Z,72.15
2018-12-06T12:17:49.761Z,72.57
2018-12-06T12:20:17.920Z,72.26
2018-12-06T12:22:46.181Z,72.11
2018-12-06T12:25:14.369Z,71.93
2018-12-06T12:27:42.866Z,72.34
2018-12-06T12:30:11.053Z,72.55
2018-12-06T12:32:39.209Z,72.46
2018-12-06T12:35:07.515Z,72.08
2018-12-06T12:37:50.232Z,72.08
2018-12-06T12:40:26.315Z,72.52
2018-12-06T12:43:06.208Z,72.01
2018-12-06T12:45:34.613Z,72.24
2018-12-06T12:48:02.865Z,72.26
2018-12-06T12:50:31.046Z,72.27
2018-12-06T12:52:59.216Z,72.19
2018-12-06T12:55:27.377Z,72.37
2018-12-06T12:57:55.552Z,72.58
2018-12-06T13:00:23.721Z,72.71
2018-12-06T13:02:51.908Z,72.28
2018-12-06T13:05:20.077Z,72.01
2018-12-06T13:07:48.257Z,71.97
2018-12-06T13:10:16.452Z,72.38
2018-12-06T13:12:44.624Z,71.98
2018-12-06T13:15:12.909Z,71.88
2018-12-06T13:17:41.105Z,72.29
2018-12-06T13:20:09.465Z,71.79
2018-12-06T13:22:37.617Z,71.73
2018-12-06T13:25:06.697Z,71.78
2018-12-06T13:27:34.993Z,71.72
2018-12-06T13:30:03.933Z,72.29
2018-12-06T13:32:32.164Z,72.29
2018-12-06T13:35:00.412Z,72.11
2018-12-06T13:37:28.560Z,71.99
2018-12-06T13:39:56.818Z,72.11
2018-12-06T13:42:25.056Z,71.70
2018-12-06T13:44:53.365Z,71.79
2018-12-06T13:47:21.508Z,72.27
2018-12-06T13:49:49.681Z,71.59
2018-12-06T13:52:17.833Z,72.18
2018-12-06T13:54:45.977Z,71.60
2018-12-06T13:57:14.159Z,72.10
2018-12-06T13:59:42.297Z,71.92
2018-12-06T14:02:10.453Z,71.90
2018-12-06T14:04:38.609Z,71.12
2018-12-06T14:07:06.848Z,71.25
2018-12-06T14:09:35.101Z,71.44
2018-12-06T14:12:03.346Z,71.78
2018-12-06T14:14:31.581Z,71.68
2018-12-06T14:16:59.741Z,71.85
2018-12-06T14:19:28.005Z,71.20
2018-12-06T14:21:56.285Z,71.62
2018-12-06T14:24:24.448Z,71.37
2018-12-06T14:26:52.661Z,71.52
2018-12-06T14:29:20.834Z,71.08
2018-12-06T14:31:49.089Z,71.05
2018-12-06T14:34:17.269Z,71.39
2018-12-06T14:36:45.428Z,71.33
2018-12-06T14:39:13.657Z,70.97
2018-12-06T14:41:41.911Z,71.57
2018-12-06T14:44:10.225Z,70.93
2018-12-06T14:46:38.476Z,71.39
2018-12-06T14:49:06.628Z,71.34
2018-12-06T14:51:34.784Z,71.33
2018-12-06T14:54:02.965Z,71.32
2018-12-06T14:56:31.252Z,71.68
2018-12-06T14:58:59.508Z,71.65
2018-12-06T15:01:27.670Z,71.21
2018-12-06T15:03:55.870Z,71.36
2018-12-06T15:06:24.105Z,71.87
2018-12-06T15:08:52.429Z,71.66
2018-12-06T15:11:20.691Z,71.61
2018-12-06T15:13:48.985Z,71.95
2018-12-06T15:16:17.275Z,72.12
2018-12-06T15:18:45.669Z,71.99
2018-12-06T15:21:14.040Z,72.02
2018-12-06T15:23:42.250Z,72.19
2018-12-06T15:26:10.591Z,71.67
2018-12-06T15:28:38.757Z,71.59
2018-12-06T15:31:07.037Z,71.97
2018-12-06T15:33:35.200Z,71.85
2018-12-06T15:36:03.352Z,72.01
2018-12-06T15:38:31.550Z,71.54
2018-12-06T15:40:59.713Z,71.93
2018-12-06T15:43:27.886Z,71.49
2018-12-06T15:45:56.290Z,71.47
2018-12-06T15:48:24.465Z,71.43
2018-12-06T15:50:52.617Z,71.55
2018-12-06T15:53:20.812Z,72.02
2018-12-06T15:55:49.105Z,71.81
2018-12-06T15:58:17.364Z,71.63
2018-12-06T16:00:45.693Z,72.07
2018-12-06T16:03:13.861Z,71.75
2018-12-06T16:05:43.498Z,72.09
2018-12-06T16:08:12.085Z,71.97
2018-12-06T16:10:40.270Z,71.92
2018-12-06T16:13:08.449Z,72.21
2018-12-06T16:15:36.697Z,72.20
2018-12-06T16:18:04.854Z,71.78
2018-12-06T16:20:33.184Z,71.78
2018-12-06T16:23:01.356Z,71.93
2018-12-06T16:25:29.547Z,71.92
2018-12-06T16:27:57.710Z,72.34
2018-12-06T16:30:26.105Z,71.75
2018-12-06T16:32:54.256Z,71.72
2018-12-06T16:35:22.445Z,72.10
2018-12-06T16:37:50.705Z,72.29
2018-12-06T16:40:19.109Z,72.10
2018-12-06T16:42:47.377Z,72.20
2018-12-06T16:45:15.546Z,71.69
2018-12-06T16:47:43.696Z,71.68
2018-12-06T16:50:11.866Z,71.82
2018-12-06T16:52:40.065Z,71.70
2018-12-06T16:55:08.664Z,71.72
2018-12-06T16:57:36.821Z,71.75
2018-12-06T17:00:07.993Z,72.29
2018-12-06T17:02:36.145Z,71.86
2018-12-06T17:05:04.992Z,71.89
2018-12-06T17:07:33.213Z,71.63
2018-12-06T17:10:01.374Z,71.92
2018-12-06T17:12:29.565Z,72.53
2018-12-06T17:14:57.737Z,72.27
2018-12-06T17:17:25.913Z,72.33
2018-12-06T17:19:54.593Z,71.99
2018-12-06T17:22:22.773Z,72.23
2018-12-06T17:24:50.941Z,72.27
2018-12-06T17:27:19.133Z,72.24
2018-12-06T17:29:47.572Z,71.82
2018-12-06T17:32:15.889Z,72.34
2018-12-06T17:34:44.277Z,71.77
2018-12-06T17:37:12.488Z,72.15
2018-12-06T17:39:40.753Z,71.83
2018-12-06T17:42:08.910Z,72.11
2018-12-06T17:44:37.797Z,72.08
2018-12-06T17:47:06.093Z,71.57
2018-12-06T17:49:34.269Z,72.00
2018-12-06T17:52:02.533Z,71.87
2018-12-06T17:54:31.001Z,71.88
2018-12-06T17:56:59.209Z,71.78
2018-12-06T17:59:27.378Z,71.84
2018-12-06T18:01:55.546Z,71.61
2018-12-06T18:04:23.697Z,71.09
2018-12-06T18:06:51.953Z,71.65
2018-12-06T18:09:20.125Z,71.59
2018-12-06T18:11:48.334Z,71.20
2018-12-06T18:14:16.485Z,71.66
2018-12-06T18:16:44.644Z,71.27
2018-12-06T18:19:13.005Z,71.25
2018-12-06T18:21:41.449Z,71.79
2018-12-06T18:24:09.804Z,71.94
2018-12-06T18:26:38.013Z,71.77
2018-12-06T18:29:06.182Z,71.99
2018-12-06T18:31:34.405Z,71.98
2018-12-06T18:34:02.589Z,71.59
2018-12-06T18:36:30.739Z,71.64
2018-12-06T18:38:58.894Z,71.53
2018-12-06T18:41:27.064Z,71.77
2018-12-06T18:43:55.235Z,72.12
2018-12-06T18:46:23.393Z,72.13
2018-12-06T18:48:51.616Z,71.54
2018-12-06T18:51:19.853Z,71.89
2018-12-06T18:53:48.172Z,71.49
2018-12-06T18:56:16.645Z,71.91
2018-12-06T18:58:44.807Z,71.64
2018-12-06T19:01:12.974Z,71.69
2018-12-06T19:03:41.229Z,71.61
2018-12-06T19:06:09.385Z,71.17
2018-12-06T19:08:37.600Z,71.66
2018-12-06T19:11:05.845Z,71.40
2018-12-06T19:13:33.990Z,71.36
2018-12-06T19:16:02.230Z,71.26
2018-12-06T19:18:30.381Z,71.34
2018-12-06T19:20:58.547Z,71.64
2018-12-06T19:23:26.782Z,71.21
2018-12-06T19:25:54.945Z,71.38
2018-12-06T19:28:23.122Z,71.64
2018-12-06T19:30:51.477Z,71.63
2018-12-06T19:33:50.485Z,71.14
2018-12-06T19:36:18.749Z,71.13
2018-12-06T19:38:46.901Z,71.10
2018-12-06T19:41:15.124Z,71.06
2018-12-06T19:43:43.316Z,70.94
2018-12-06T19:46:12.072Z,71.13
2018-12-06T19:48:40.325Z,70.96
2018-12-06T19:51:08.541Z,70.68
2018-12-06T19:53:36.781Z,71.14
2018-12-06T19:56:05.164Z,71.17
2018-12-06T19:58:33.410Z,70.82
2018-12-06T20:01:01.574Z,70.52
2018-12-06T20:03:29.730Z,70.77
2018-12-06T20:05:58.141Z,71.34
2018-12-06T20:08:26.448Z,71.08
2018-12-06T20:10:54.601Z,71.23
2018-12-06T20:13:22.748Z,70.65
2018-12-06T20:15:50.919Z,70.99
2018-12-06T20:18:19.161Z,70.80
2018-12-06T20:20:47.333Z,70.98
2018-12-06T20:23:15.509Z,70.67
2018-12-06T20:25:43.696Z,71.14
2018-12-06T20:28:11.845Z,70.88
2018-12-06T20:30:40.005Z,71.25
2018-12-06T20:33:08.177Z,71.14
2018-12-06T20:35:36.405Z,71.12
2018-12-06T20:38:04.650Z,70.84
2018-12-06T20:40:32.793Z,70.98
2018-12-06T20:43:00.950Z,71.03
2018-12-06T20:45:29.179Z,70.70
2018-12-06T20:47:57.425Z,71.07
2018-12-06T20:50:25.661Z,71.09
2018-12-06T20:52:53.824Z,70.46
2018-12-06T20:55:21.977Z,70.51
2018-12-06T20:57:50.138Z,70.83
2018-12-06T21:00:18.421Z,70.64
2018-12-06T21:02:46.581Z,70.71
2018-12-06T21:05:14.729Z,70.25
2018-12-06T21:07:42.885Z,70.52
2018-12-06T21:10:11.025Z,70.20
2018-12-06T21:12:39.218Z,70.69
2018-12-06T21:15:07.928Z,69.95
2018-12-06T21:17:36.332Z,70.50
2018-12-06T21:20:04.817Z,70.52
2018-12-06T21:22:33.221Z,69.86
2018-12-06T21:25:01.392Z,70.37
2018-12-06T21:27:29.629Z,69.94
2018-12-06T21:29:57.792Z,70.35
2018-12-06T21:32:25.961Z,70.21
2018-12-06T21:34:54.113Z,69.86
2018-12-06T21:37:22.276Z,70.06
2018-12-06T21:39:50.476Z,69.91
2018-12-06T21:42:18.628Z,70.16
2018-12-06T21:44:46.779Z,69.72
2018-12-06T21:47:20.180Z,69.61
2018-12-06T21:49:48.486Z,69.63
2018-12-06T21:52:16.684Z,69.69
2018-12-06T21:54:44.890Z,69.68
2018-12-06T21:57:13.120Z,69.44
2018-12-06T21:59:41.304Z,69.79
2018-12-06T22:02:22.001Z,69.84
2018-12-06T22:04:50.186Z,69.86
2018-12-06T22:07:18.609Z,69.80
2018-12-06T22:09:46.806Z,70.04
2018-12-06T22:12:14.944Z,69.54
2018-12-06T22:14:43.185Z,69.87
2018-12-06T22:17:11.418Z,69.61
2018-12-06T22:19:39.640Z,69.33
2018-12-06T22:22:07.957Z,69.38
2018-12-06T22:24:36.280Z,69.84
2018-12-06T22:27:04.453Z,69.73
2018-12-06T22:29:32.630Z,69.03
2018-12-06T22:32:00.849Z,69.66
2018-12-06T22:34:29.075Z,69.86
2018-12-06T22:36:57.232Z,69.44
2018-12-06T22:39:25.429Z,69.85
2018-12-06T22:41:53.661Z,68.82
2018-12-06T22:44:21.813Z,69.08
2018-12-06T22:46:49.968Z,69.14
2018-12-06T22:49:18.133Z,69.49
2018-12-06T22:51:46.281Z,69.60
2018-12-06T22:54:14.436Z,69.05
2018-12-06T22:56:42.628Z,68.85
2018-12-06T22:59:10.961Z,68.96
2018-12-06T23:01:40.097Z,68.92
2018-12-06T23:04:08.725Z,68.76
2018-12-06T23:06:38.101Z,68.81
2018-12-06T23:09:09.173Z,69.12
2018-12-06T23:11:38.177Z,69.08
2018-12-06T23:14:06.320Z,68.53
2018-12-06T23:16:34.645Z,68.92
2018-12-06T23:19:03.369Z,68.92
2018-12-06T23:21:31.609Z,68.94
2018-12-06T23:23:59.921Z,68.88
2018-12-06T23:26:28.084Z,68.47
2018-12-06T23:28:56.313Z,68.91
2018-12-06T23:31:24.476Z,69.01
2018-12-06T23:33:52.713Z,69.20
2018-12-06T23:36:20.872Z,68.93
2018-12-06T23:38:49.017Z,68.82
2018-12-06T23:41:17.173Z,68.74
2018-12-06T23:43:45.396Z,68.31
2018-12-06T23:46:13.577Z,68.90
2018-12-06T23:48:41.775Z,68.19
2018-12-06T23:51:21.371Z,68.71
2018-12-06T23:53:49.652Z,68.78
2018-12-06T23:56:17.821Z,68.79
2018-12-06T23:58:46.127Z,68.25
